createdAt,value
2022-07-29T00:00:38.230Z,46.73
2022-07-29T00:01:38.223Z,46.03
2022-07-29T00:02:38.247Z,46.42
2022-07-29T00:03:38.244Z,47.83
2022-07-29T00:04:38.219Z,47.43
2022-07-29T00:05:38.189Z,48.03
2022-07-29T00:06:38.197Z,47.73
2022-07-29T00:07:38.165Z,47.03
2022-07-29T00:08:38.162Z,47.03
2022-07-29T00:09:41.999Z,47.43
2022-07-29T00:10:39.151Z,47.73
2022-07-29T00:11:38.139Z,47.53
2022-07-29T00:12:38.147Z,48.16
2022-07-29T00:13:38.126Z,47.75
2022-07-29T00:14:38.112Z,48.16
2022-07-29T00:15:38.113Z,48.28
2022-07-29T00:16:38.141Z,48.35
2022-07-29T00:17:38.121Z,47.55
2022-07-29T00:18:38.104Z,48.98
2022-07-29T00:19:38.089Z,47.97
2022-07-29T00:20:38.088Z,47.75
2022-07-29T00:21:38.064Z,48.25
2022-07-29T00:22:39.075Z,47.85
2022-07-29T00:23:38.076Z,48.78
2022-07-29T00:24:38.056Z,48.08
2022-07-29T00:25:38.051Z,48.25
2022-07-29T00:26:38.043Z,48.18
2022-07-29T00:27:38.050Z,47.97
2022-07-29T00:28:38.035Z,47.96
2022-07-29T00:29:38.029Z,49.08
2022-07-29T00:30:38.021Z,49.78
2022-07-29T00:31:38.079Z,49.08
2022-07-29T00:32:38.010Z,49.68
2022-07-29T00:33:38.028Z,48.80
2022-07-29T00:34:37.991Z,49.21
2022-07-29T00:35:37.985Z,49.78
2022-07-29T00:36:37.980Z,49.08
2022-07-29T00:37:37.975Z,49.21
2022-07-29T00:38:37.971Z,49.21
2022-07-29T00:39:37.959Z,49.51
2022-07-29T00:40:37.953Z,48.80
2022-07-29T00:41:38.927Z,50.11
2022-07-29T00:42:37.934Z,49.51
2022-07-29T00:43:37.934Z,50.31
2022-07-29T00:44:37.922Z,50.41
2022-07-29T00:45:37.921Z,49.71
2022-07-29T00:46:37.986Z,50.41
2022-07-29T00:47:37.890Z,48.80
2022-07-29T00:48:37.942Z,51.04
2022-07-29T00:49:37.895Z,50.51
2022-07-29T00:50:37.872Z,50.93
2022-07-29T00:51:37.875Z,50.13
2022-07-29T00:52:37.870Z,50.33
2022-07-29T00:53:37.869Z,51.24
2022-07-29T00:54:44.070Z,50.03
2022-07-29T00:55:38.860Z,50.43
2022-07-29T00:56:37.849Z,51.14
2022-07-29T00:57:37.837Z,50.43
2022-07-29T00:58:37.847Z,48.93
2022-07-29T00:59:37.829Z,50.13
2022-07-29T01:00:37.861Z,50.73
2022-07-29T01:01:37.893Z,50.03
2022-07-29T01:02:38.048Z,49.01
2022-07-29T01:03:37.800Z,49.13
2022-07-29T01:04:37.791Z,50.84
2022-07-29T01:05:50.841Z,49.83
2022-07-29T01:06:38.770Z,49.22
2022-07-29T01:07:37.757Z,49.83
2022-07-29T01:08:37.770Z,49.73
2022-07-29T01:09:46.391Z,49.22
2022-07-29T01:10:38.745Z,49.83
2022-07-29T01:11:37.741Z,49.13
2022-07-29T01:12:37.725Z,49.13
2022-07-29T01:13:37.733Z,51.14
2022-07-29T01:14:38.337Z,49.22
2022-07-29T01:15:37.717Z,48.95
2022-07-29T01:16:38.772Z,50.93
2022-07-29T01:17:37.705Z,50.33
2022-07-29T01:18:37.697Z,50.03
2022-07-29T01:19:37.693Z,50.03
2022-07-29T01:20:37.689Z,50.03
2022-07-29T01:21:37.686Z,49.73
2022-07-29T01:22:37.665Z,49.83
2022-07-29T01:23:37.670Z,49.76
2022-07-29T01:24:37.673Z,50.43
2022-07-29T01:25:37.661Z,51.14
2022-07-29T01:26:37.644Z,50.84
2022-07-29T01:27:37.642Z,50.63
2022-07-29T01:28:37.633Z,50.63
2022-07-29T01:29:40.307Z,49.22
2022-07-29T01:30:37.632Z,49.73
2022-07-29T01:31:40.281Z,50.33
2022-07-29T01:32:38.586Z,49.51
2022-07-29T01:33:37.601Z,49.71
2022-07-29T01:34:37.587Z,48.70
2022-07-29T01:35:37.585Z,50.51
2022-07-29T01:36:37.577Z,49.43
2022-07-29T01:37:37.568Z,49.63
2022-07-29T01:38:37.560Z,50.03
2022-07-29T01:39:37.556Z,50.01
2022-07-29T01:40:37.548Z,50.43
2022-07-29T01:41:37.545Z,49.93
2022-07-29T01:42:37.542Z,50.13
2022-07-29T01:43:37.531Z,49.53
2022-07-29T01:44:37.544Z,49.33
2022-07-29T01:45:37.520Z,51.16
2022-07-29T01:46:37.617Z,49.95
2022-07-29T01:47:37.515Z,50.56
2022-07-29T01:48:37.554Z,51.16
2022-07-29T01:49:37.484Z,51.36
2022-07-29T01:50:37.480Z,50.86
2022-07-29T01:51:37.476Z,50.66
2022-07-29T01:52:37.468Z,51.26
2022-07-29T01:53:38.133Z,50.15
2022-07-29T01:54:37.450Z,51.26
2022-07-29T01:55:37.451Z,50.05
2022-07-29T01:56:37.475Z,50.76
2022-07-29T01:57:37.431Z,50.13
2022-07-29T01:58:37.419Z,50.13
2022-07-29T01:59:37.422Z,50.93
2022-07-29T02:00:37.403Z,50.56
2022-07-29T02:01:37.465Z,50.46
2022-07-29T02:02:37.417Z,51.06
2022-07-29T02:03:37.390Z,50.86
2022-07-29T02:04:37.423Z,51.26
2022-07-29T02:05:37.378Z,50.73
2022-07-29T02:06:37.374Z,50.84
2022-07-29T02:07:37.370Z,50.46
2022-07-29T02:08:37.355Z,51.24
2022-07-29T02:09:37.346Z,50.46
2022-07-29T02:10:38.349Z,50.86
2022-07-29T02:11:37.355Z,52.24
2022-07-29T02:12:37.326Z,50.56
2022-07-29T02:13:37.308Z,51.34
2022-07-29T02:14:38.317Z,50.63
2022-07-29T02:15:37.310Z,50.56
2022-07-29T02:16:37.471Z,51.36
2022-07-29T02:17:39.874Z,52.37
2022-07-29T02:18:37.291Z,50.76
2022-07-29T02:19:37.289Z,51.16
2022-07-29T02:20:37.267Z,52.26
2022-07-29T02:21:37.366Z,51.86
2022-07-29T02:22:37.286Z,51.06
2022-07-29T02:23:50.444Z,51.99
2022-07-29T02:24:38.241Z,50.68
2022-07-29T02:25:38.361Z,52.49
2022-07-29T02:26:37.238Z,52.47
2022-07-29T02:27:37.237Z,50.96
2022-07-29T02:28:37.222Z,52.06
2022-07-29T02:29:37.218Z,51.16
2022-07-29T02:30:37.206Z,52.37
2022-07-29T02:31:37.275Z,50.76
2022-07-29T02:32:37.213Z,51.76
2022-07-29T02:33:37.185Z,51.06
2022-07-29T02:34:37.178Z,51.06
2022-07-29T02:35:37.179Z,51.16
2022-07-29T02:36:37.171Z,50.96
2022-07-29T02:37:37.177Z,50.86
2022-07-29T02:38:37.163Z,51.36
2022-07-29T02:39:37.147Z,52.17
2022-07-29T02:40:37.134Z,52.19
2022-07-29T02:41:37.129Z,52.37
2022-07-29T02:42:37.109Z,51.97
2022-07-29T02:43:37.127Z,52.57
2022-07-29T02:44:37.113Z,51.39
2022-07-29T02:45:37.098Z,51.99
2022-07-29T02:46:37.174Z,51.89
2022-07-29T02:47:41.818Z,52.09
2022-07-29T02:48:38.148Z,51.79
2022-07-29T02:49:37.083Z,52.06
2022-07-29T02:50:37.077Z,52.39
2022-07-29T02:51:41.126Z,52.59
2022-07-29T02:52:38.053Z,50.98
2022-07-29T02:53:37.061Z,52.59
2022-07-29T02:54:37.043Z,52.59
2022-07-29T02:55:37.021Z,52.19
2022-07-29T02:56:37.030Z,52.42
2022-07-29T02:57:54.159Z,51.51
2022-07-29T02:58:38.025Z,52.89
2022-07-29T02:59:37.009Z,53.12
2022-07-29T03:00:37.008Z,53.50
2022-07-29T03:01:37.025Z,52.39
2022-07-29T03:02:36.994Z,52.29
2022-07-29T03:03:36.985Z,52.69
2022-07-29T03:04:37.147Z,53.20
2022-07-29T03:05:36.974Z,52.69
2022-07-29T03:06:39.038Z,51.68
2022-07-29T03:07:36.957Z,51.89
2022-07-29T03:08:36.955Z,51.79
2022-07-29T03:09:36.954Z,52.69
2022-07-29T03:10:36.937Z,52.59
2022-07-29T03:11:41.432Z,51.09
2022-07-29T03:12:37.951Z,52.29
2022-07-29T03:13:36.913Z,51.89
2022-07-29T03:14:36.907Z,51.79
2022-07-29T03:15:36.999Z,52.19
2022-07-29T03:16:41.024Z,52.89
2022-07-29T03:17:37.893Z,52.59
2022-07-29T03:18:36.872Z,52.69
2022-07-29T03:19:36.873Z,52.51
2022-07-29T03:20:36.872Z,53.20
2022-07-29T03:21:36.857Z,51.68
2022-07-29T03:22:36.850Z,53.00
2022-07-29T03:23:37.029Z,53.00
2022-07-29T03:24:36.840Z,53.70
2022-07-29T03:25:36.834Z,53.42
2022-07-29T03:26:36.838Z,53.90
2022-07-29T03:27:36.813Z,52.92
2022-07-29T03:28:36.829Z,53.50
2022-07-29T03:29:36.833Z,52.51
2022-07-29T03:30:36.799Z,52.89
2022-07-29T03:31:36.837Z,52.82
2022-07-29T03:32:36.778Z,53.09
2022-07-29T03:33:36.776Z,52.62
2022-07-29T03:34:36.767Z,53.60
2022-07-29T03:35:36.768Z,53.52
2022-07-29T03:36:36.756Z,54.33
2022-07-29T03:37:36.753Z,53.70
2022-07-29T03:38:36.738Z,53.60
2022-07-29T03:39:36.733Z,53.02
2022-07-29T03:40:36.736Z,53.52
2022-07-29T03:41:36.723Z,52.01
2022-07-29T03:42:36.726Z,51.81
2022-07-29T03:43:36.706Z,52.92
2022-07-29T03:44:36.699Z,52.49
2022-07-29T03:45:36.697Z,52.89
2022-07-29T03:46:36.783Z,53.02
2022-07-29T03:47:49.844Z,53.72
2022-07-29T03:48:37.727Z,54.46
2022-07-29T03:49:36.757Z,54.46
2022-07-29T03:50:36.655Z,53.83
2022-07-29T03:51:36.645Z,53.52
2022-07-29T03:52:36.648Z,52.72
2022-07-29T03:53:36.653Z,54.03
2022-07-29T03:54:36.632Z,53.63
2022-07-29T03:55:36.620Z,53.22
2022-07-29T03:56:36.620Z,53.63
2022-07-29T03:57:36.615Z,53.60
2022-07-29T03:58:36.613Z,54.20
2022-07-29T03:59:36.624Z,53.32
2022-07-29T04:00:36.590Z,53.70
2022-07-29T04:01:36.622Z,53.90
2022-07-29T04:02:36.608Z,53.60
2022-07-29T04:03:36.628Z,53.40
2022-07-29T04:04:36.578Z,53.70
2022-07-29T04:05:36.562Z,53.22
2022-07-29T04:06:36.549Z,54.40
2022-07-29T04:07:36.545Z,53.70
2022-07-29T04:08:36.537Z,53.50
2022-07-29T04:09:36.581Z,53.92
2022-07-29T04:10:36.528Z,54.23
2022-07-29T04:12:02.432Z,53.40
2022-07-29T04:12:37.517Z,53.30
2022-07-29T04:13:36.504Z,53.83
2022-07-29T04:14:36.496Z,53.40
2022-07-29T04:15:36.518Z,54.13
2022-07-29T04:16:36.491Z,54.93
2022-07-29T04:17:36.485Z,53.52
2022-07-29T04:18:36.461Z,54.03
2022-07-29T04:19:36.482Z,54.93
2022-07-29T04:20:36.464Z,54.10
2022-07-29T04:21:36.457Z,53.83
2022-07-29T04:22:36.449Z,54.23
2022-07-29T04:23:36.441Z,53.22
2022-07-29T04:24:37.450Z,54.93
2022-07-29T04:25:36.426Z,53.42
2022-07-29T04:26:36.410Z,54.50
2022-07-29T04:27:36.410Z,54.10
2022-07-29T04:28:36.401Z,53.83
2022-07-29T04:29:36.394Z,55.03
2022-07-29T04:30:37.412Z,53.92
2022-07-29T04:31:36.515Z,55.03
2022-07-29T04:32:36.380Z,53.92
2022-07-29T04:33:36.365Z,55.43
2022-07-29T04:34:36.363Z,55.56
2022-07-29T04:35:38.219Z,55.87
2022-07-29T04:36:36.362Z,56.09
2022-07-29T04:37:36.342Z,57.30
2022-07-29T04:38:36.339Z,57.40
2022-07-29T04:39:36.332Z,57.20
2022-07-29T04:40:38.692Z,57.10
2022-07-29T04:41:36.329Z,57.20
2022-07-29T04:42:36.304Z,57.00
2022-07-29T04:43:37.317Z,57.60
2022-07-29T04:44:39.571Z,57.90
2022-07-29T04:45:37.285Z,58.41
2022-07-29T04:46:36.337Z,58.31
2022-07-29T04:47:36.282Z,58.01
2022-07-29T04:48:36.317Z,57.88
2022-07-29T04:49:36.265Z,57.07
2022-07-29T04:50:36.250Z,57.04
2022-07-29T04:51:36.261Z,56.84
2022-07-29T04:52:36.249Z,56.84
2022-07-29T04:53:36.238Z,55.74
2022-07-29T04:54:36.231Z,57.04
2022-07-29T04:55:36.225Z,57.04
2022-07-29T04:56:36.225Z,56.74
2022-07-29T04:57:36.225Z,57.24
2022-07-29T04:58:36.231Z,56.74
2022-07-29T04:59:36.205Z,55.41
2022-07-29T05:00:36.192Z,55.11
2022-07-29T05:01:36.255Z,54.00
2022-07-29T05:02:36.208Z,55.21
2022-07-29T05:03:36.229Z,55.81
2022-07-29T05:04:36.149Z,55.58
2022-07-29T05:05:36.170Z,54.08
2022-07-29T05:06:36.146Z,53.55
2022-07-29T05:07:36.147Z,53.05
2022-07-29T05:08:36.177Z,52.44
2022-07-29T05:09:36.129Z,52.87
2022-07-29T05:10:36.117Z,52.34
2022-07-29T05:11:36.113Z,53.77
2022-07-29T05:12:36.113Z,53.47
2022-07-29T05:13:45.790Z,52.24
2022-07-29T05:14:37.089Z,52.64
2022-07-29T05:15:36.154Z,53.05
2022-07-29T05:16:36.080Z,53.65
2022-07-29T05:17:36.068Z,53.45
2022-07-29T05:18:36.065Z,52.62
2022-07-29T05:19:39.660Z,52.51
2022-07-29T05:20:36.048Z,52.51
2022-07-29T05:21:36.053Z,52.62
2022-07-29T05:22:36.041Z,52.62
2022-07-29T05:23:36.023Z,51.81
2022-07-29T05:24:36.040Z,50.81
2022-07-29T05:25:43.404Z,52.39
2022-07-29T05:26:36.014Z,52.49
2022-07-29T05:27:36.004Z,52.19
2022-07-29T05:28:36.047Z,51.79
2022-07-29T05:29:43.889Z,51.79
2022-07-29T05:30:36.003Z,50.99
2022-07-29T05:31:35.984Z,50.89
2022-07-29T05:32:35.968Z,52.29
2022-07-29T05:33:37.009Z,51.79
2022-07-29T05:34:37.007Z,52.12
2022-07-29T05:35:36.957Z,52.19
2022-07-29T05:36:35.943Z,50.79
2022-07-29T05:37:35.941Z,52.22
2022-07-29T05:38:35.933Z,52.12
2022-07-29T05:39:47.133Z,52.12
2022-07-29T05:40:36.941Z,51.72
2022-07-29T05:41:35.924Z,52.22
2022-07-29T05:42:35.904Z,52.09
2022-07-29T05:43:35.908Z,50.91
2022-07-29T05:44:35.913Z,52.29
2022-07-29T05:45:35.882Z,51.42
2022-07-29T05:46:37.069Z,52.12
2022-07-29T05:47:35.877Z,52.12
2022-07-29T05:48:35.852Z,52.62
2022-07-29T05:49:35.910Z,51.61
2022-07-29T05:50:35.864Z,52.22
2022-07-29T05:51:36.836Z,52.22
2022-07-29T05:52:35.849Z,52.62
2022-07-29T05:53:35.838Z,51.81
2022-07-29T05:54:35.829Z,51.79
2022-07-29T05:55:35.819Z,51.92
2022-07-29T05:56:35.816Z,51.61
2022-07-29T05:57:35.813Z,51.79
2022-07-29T05:58:35.807Z,52.42
2022-07-29T05:59:35.792Z,52.59
2022-07-29T06:00:35.798Z,52.80
2022-07-29T06:01:35.879Z,52.59
2022-07-29T06:02:35.763Z,52.59
2022-07-29T06:03:35.770Z,52.89
2022-07-29T06:04:35.809Z,52.89
2022-07-29T06:05:35.765Z,52.39
2022-07-29T06:06:35.737Z,51.89
2022-07-29T06:07:35.740Z,52.29
2022-07-29T06:08:35.729Z,52.59
2022-07-29T06:09:36.317Z,51.79
2022-07-29T06:10:36.722Z,51.97
2022-07-29T06:11:35.728Z,51.06
2022-07-29T06:12:35.709Z,50.79
2022-07-29T06:13:35.715Z,51.67
2022-07-29T06:14:35.684Z,52.19
2022-07-29T06:15:35.717Z,51.89
2022-07-29T06:16:35.783Z,52.49
2022-07-29T06:17:35.671Z,51.79
2022-07-29T06:18:35.672Z,52.80
2022-07-29T06:19:35.643Z,51.49
2022-07-29T06:20:35.649Z,52.59
2022-07-29T06:21:35.665Z,51.69
2022-07-29T06:22:35.633Z,52.42
2022-07-29T06:23:35.629Z,53.22
2022-07-29T06:24:35.633Z,53.12
2022-07-29T06:25:35.617Z,52.94
2022-07-29T06:26:39.762Z,53.55
2022-07-29T06:27:35.608Z,52.22
2022-07-29T06:28:35.596Z,52.72
2022-07-29T06:29:35.588Z,52.62
2022-07-29T06:30:35.633Z,52.01
2022-07-29T06:31:35.600Z,51.79
2022-07-29T06:32:38.913Z,52.42
2022-07-29T06:33:35.569Z,51.69
2022-07-29T06:34:35.560Z,52.49
2022-07-29T06:35:39.166Z,51.79
2022-07-29T06:36:36.558Z,52.49
2022-07-29T06:37:35.541Z,52.89
2022-07-29T06:38:40.335Z,52.80
2022-07-29T06:39:36.526Z,53.80
2022-07-29T06:40:35.520Z,53.70
2022-07-29T06:41:35.525Z,53.80
2022-07-29T06:42:35.509Z,53.80
2022-07-29T06:43:36.495Z,53.70
2022-07-29T06:44:36.489Z,53.39
2022-07-29T06:45:35.516Z,53.47
2022-07-29T06:46:35.545Z,52.97
2022-07-29T06:47:35.491Z,53.77
2022-07-29T06:48:35.462Z,53.27
2022-07-29T06:49:35.463Z,53.07
2022-07-29T06:50:35.451Z,52.97
2022-07-29T06:51:35.448Z,52.64
2022-07-29T06:52:35.460Z,52.52
2022-07-29T06:53:35.430Z,52.62
2022-07-29T06:54:35.423Z,52.62
2022-07-29T06:55:35.419Z,52.01
2022-07-29T06:56:39.635Z,51.62
2022-07-29T06:57:35.404Z,51.82
2022-07-29T06:58:35.416Z,52.42
2022-07-29T06:59:36.102Z,51.74
2022-07-29T07:00:36.456Z,51.84
2022-07-29T07:01:35.454Z,51.74
2022-07-29T07:02:35.453Z,52.64
2022-07-29T07:03:35.385Z,52.64
2022-07-29T07:04:35.363Z,52.55
2022-07-29T07:05:35.351Z,53.57
2022-07-29T07:06:35.376Z,52.97
2022-07-29T07:07:35.334Z,51.76
2022-07-29T07:08:35.332Z,51.76
2022-07-29T07:09:40.447Z,52.37
2022-07-29T07:10:37.321Z,53.70
2022-07-29T07:11:35.310Z,55.60
2022-07-29T07:12:35.302Z,55.91
2022-07-29T07:13:35.295Z,54.93
2022-07-29T07:14:35.299Z,56.63
2022-07-29T07:15:39.767Z,57.04
2022-07-29T07:16:35.302Z,56.76
2022-07-29T07:17:35.275Z,58.47
2022-07-29T07:18:35.261Z,58.37
2022-07-29T07:19:36.262Z,57.87
2022-07-29T07:20:35.251Z,57.26
2022-07-29T07:21:35.243Z,56.96
2022-07-29T07:22:38.751Z,58.27
2022-07-29T07:23:36.230Z,56.86
2022-07-29T07:24:35.242Z,57.37
2022-07-29T07:25:35.210Z,57.87
2022-07-29T07:26:35.207Z,58.47
2022-07-29T07:27:35.199Z,59.67
2022-07-29T07:28:35.183Z,58.70
2022-07-29T07:29:35.197Z,59.20
2022-07-29T07:30:35.179Z,60.00
2022-07-29T07:31:35.227Z,61.21
2022-07-29T07:32:35.171Z,62.65
2022-07-29T07:33:35.157Z,60.64
2022-07-29T07:34:35.152Z,62.45
2022-07-29T07:35:35.176Z,60.94
2022-07-29T07:36:35.151Z,63.93
2022-07-29T07:37:35.128Z,63.76
2022-07-29T07:38:35.126Z,62.92
2022-07-29T07:39:35.119Z,64.83
2022-07-29T07:40:35.130Z,65.13
2022-07-29T07:41:36.112Z,65.23
2022-07-29T07:42:35.101Z,66.51
2022-07-29T07:43:35.086Z,66.31
2022-07-29T07:44:51.327Z,66.20
2022-07-29T07:45:37.102Z,67.01
2022-07-29T07:46:35.078Z,65.70
2022-07-29T07:47:35.058Z,66.61
2022-07-29T07:48:35.070Z,66.31
2022-07-29T07:49:35.042Z,64.77
2022-07-29T07:50:35.030Z,64.87
2022-07-29T07:51:35.059Z,65.91
2022-07-29T07:52:35.019Z,65.30
2022-07-29T07:53:35.028Z,63.79
2022-07-29T07:54:35.023Z,64.00
2022-07-29T07:55:59.985Z,64.00
2022-07-29T07:56:37.007Z,64.30
2022-07-29T07:57:35.004Z,64.80
2022-07-29T07:58:34.983Z,64.70
2022-07-29T07:59:34.979Z,64.60
2022-07-29T08:00:34.966Z,66.34
2022-07-29T08:01:55.668Z,66.44
2022-07-29T08:02:36.019Z,66.54
2022-07-29T08:03:34.955Z,68.05
2022-07-29T08:04:34.951Z,68.95
2022-07-29T08:05:34.941Z,69.85
2022-07-29T08:06:34.941Z,69.96
2022-07-29T08:07:34.933Z,69.99
2022-07-29T08:08:34.918Z,69.25
2022-07-29T08:09:34.915Z,70.26
2022-07-29T08:10:34.907Z,69.45
2022-07-29T08:11:37.680Z,69.92
2022-07-29T08:12:34.886Z,69.82
2022-07-29T08:13:34.889Z,69.56
2022-07-29T08:14:34.879Z,68.95
2022-07-29T08:15:34.870Z,70.46
2022-07-29T08:16:34.898Z,70.56
2022-07-29T08:17:35.435Z,70.56
2022-07-29T08:18:34.851Z,70.86
2022-07-29T08:19:34.849Z,70.43
2022-07-29T08:20:34.834Z,69.76
2022-07-29T08:21:34.833Z,70.03
2022-07-29T08:22:34.842Z,71.23
2022-07-29T08:23:46.893Z,70.39
2022-07-29T08:24:35.820Z,69.59
2022-07-29T08:25:34.801Z,70.59
2022-07-29T08:26:34.798Z,70.36
2022-07-29T08:27:43.477Z,69.56
2022-07-29T08:28:36.795Z,69.42
2022-07-29T08:29:34.786Z,69.02
2022-07-29T08:30:34.775Z,66.71
2022-07-29T08:31:34.892Z,68.99
2022-07-29T08:32:53.213Z,68.99
2022-07-29T08:33:36.754Z,70.36
2022-07-29T08:34:34.762Z,69.16
2022-07-29T08:35:35.698Z,69.73
2022-07-29T08:36:35.746Z,66.92
2022-07-29T08:37:34.724Z,65.59
2022-07-29T08:38:34.719Z,64.98
2022-07-29T08:39:34.734Z,66.46
2022-07-29T08:40:34.702Z,64.15
2022-07-29T08:41:34.696Z,64.92
2022-07-29T08:42:34.683Z,64.22
2022-07-29T08:43:34.682Z,64.99
2022-07-29T08:44:34.666Z,64.06
2022-07-29T08:45:34.796Z,62.96
2022-07-29T08:46:34.662Z,63.33
2022-07-29T08:47:34.666Z,63.34
2022-07-29T08:48:34.633Z,63.91
2022-07-29T08:49:34.645Z,63.72
2022-07-29T08:50:34.655Z,60.80
2022-07-29T08:51:34.635Z,60.02
2022-07-29T08:52:35.618Z,55.74
2022-07-29T08:53:34.610Z,59.19
2022-07-29T08:54:34.610Z,54.72
2022-07-29T08:55:34.606Z,54.28
2022-07-29T08:56:34.614Z,53.41
2022-07-29T08:57:34.585Z,52.31
2022-07-29T08:58:37.171Z,53.01
2022-07-29T08:59:34.566Z,50.23
2022-07-29T09:00:34.581Z,49.46
2022-07-29T09:01:36.245Z,50.38
2022-07-29T09:02:35.553Z,52.19
2022-07-29T09:03:34.600Z,51.30
2022-07-29T09:04:34.539Z,52.09
2022-07-29T09:05:39.640Z,53.11
2022-07-29T09:06:36.537Z,51.23
2022-07-29T09:07:34.855Z,50.05
2022-07-29T09:08:34.534Z,50.56
2022-07-29T09:09:34.506Z,51.25
2022-07-29T09:10:34.498Z,53.14
2022-07-29T09:11:34.493Z,53.53
2022-07-29T09:12:37.828Z,54.03
2022-07-29T09:13:35.533Z,53.44
2022-07-29T09:14:34.481Z,53.33
2022-07-29T09:15:34.466Z,54.43
2022-07-29T09:16:52.320Z,55.10
2022-07-29T09:17:36.475Z,54.03
2022-07-29T09:18:34.459Z,54.21
2022-07-29T09:19:34.453Z,51.62
2022-07-29T09:20:34.441Z,52.96
2022-07-29T09:21:34.459Z,51.45
2022-07-29T09:22:36.723Z,51.45
2022-07-29T09:23:35.426Z,51.45
2022-07-29T09:24:34.418Z,51.65
2022-07-29T09:25:34.401Z,50.36
2022-07-29T09:26:34.398Z,50.26
2022-07-29T09:27:34.385Z,49.88
2022-07-29T09:28:34.390Z,49.37
2022-07-29T09:29:36.296Z,49.46
2022-07-29T09:30:35.349Z,50.65
2022-07-29T09:31:35.441Z,49.34
2022-07-29T09:32:34.351Z,49.24
2022-07-29T09:33:34.354Z,48.55
2022-07-29T09:34:34.338Z,49.81
2022-07-29T09:35:34.366Z,50.09
2022-07-29T09:36:34.338Z,48.46
2022-07-29T09:37:34.306Z,48.36
2022-07-29T09:38:34.314Z,47.96
2022-07-29T09:39:34.304Z,47.47
2022-07-29T09:40:34.294Z,45.68
2022-07-29T09:41:34.293Z,45.09
2022-07-29T09:42:34.282Z,45.27
2022-07-29T09:43:34.289Z,46.53
2022-07-29T09:44:34.281Z,44.34
2022-07-29T09:45:34.262Z,45.67
2022-07-29T09:46:34.296Z,44.51
2022-07-29T09:47:34.251Z,41.94
2022-07-29T09:48:34.233Z,42.36
2022-07-29T09:49:34.237Z,42.68
2022-07-29T09:50:34.233Z,42.50
2022-07-29T09:51:38.617Z,43.71
2022-07-29T09:52:34.222Z,40.47
2022-07-29T09:53:34.217Z,41.66
2022-07-29T09:54:34.207Z,40.11
2022-07-29T09:55:34.198Z,37.65
2022-07-29T09:56:34.189Z,37.67
2022-07-29T09:57:34.210Z,37.31
2022-07-29T09:58:34.182Z,36.65
2022-07-29T09:59:34.185Z,38.20
2022-07-29T10:00:34.237Z,38.33
2022-07-29T10:01:34.162Z,36.66
2022-07-29T10:02:34.166Z,37.37
2022-07-29T10:03:34.199Z,39.15
2022-07-29T10:04:34.142Z,39.15
2022-07-29T10:05:36.783Z,38.37
2022-07-29T10:06:34.117Z,38.19
2022-07-29T10:07:34.117Z,38.68
2022-07-29T10:08:34.121Z,38.27
2022-07-29T10:09:34.114Z,39.25
2022-07-29T10:10:34.095Z,37.78
2022-07-29T10:11:35.487Z,38.66
2022-07-29T10:12:35.094Z,37.19
2022-07-29T10:13:34.084Z,37.37
2022-07-29T10:14:34.075Z,37.84
2022-07-29T10:15:34.067Z,37.31
2022-07-29T10:16:34.132Z,35.93
2022-07-29T10:17:34.074Z,37.08
2022-07-29T10:18:34.057Z,38.08
2022-07-29T10:19:34.052Z,37.83
2022-07-29T10:20:34.049Z,35.55
2022-07-29T10:21:36.224Z,33.44
2022-07-29T10:22:52.494Z,33.80
2022-07-29T10:23:46.437Z,33.67
2022-07-29T10:24:35.022Z,31.97
2022-07-29T10:25:34.027Z,30.41
2022-07-29T10:26:34.009Z,31.50
2022-07-29T10:27:34.009Z,31.70
2022-07-29T10:28:34.006Z,30.90
2022-07-29T10:29:33.989Z,31.00
2022-07-29T10:30:34.019Z,31.30
2022-07-29T10:31:34.057Z,31.11
2022-07-29T10:32:33.976Z,31.53
2022-07-29T10:33:33.965Z,31.53
2022-07-29T10:34:33.962Z,32.75
2022-07-29T10:35:33.949Z,31.47
2022-07-29T10:36:33.944Z,30.79
2022-07-29T10:37:35.376Z,29.86
2022-07-29T10:38:33.946Z,31.25
2022-07-29T10:39:41.610Z,30.78
2022-07-29T10:40:35.791Z,32.08
2022-07-29T10:41:44.397Z,32.09
2022-07-29T10:42:34.936Z,32.79
2022-07-29T10:43:33.897Z,32.29
2022-07-29T10:44:33.907Z,32.50
2022-07-29T10:45:33.894Z,32.82
2022-07-29T10:46:33.937Z,34.09
2022-07-29T10:47:35.347Z,34.39
2022-07-29T10:48:33.881Z,33.41
2022-07-29T10:49:33.932Z,33.41
2022-07-29T10:50:33.850Z,33.30
2022-07-29T10:51:33.855Z,33.97
2022-07-29T10:52:33.837Z,32.37
2022-07-29T10:53:34.013Z,32.35
2022-07-29T10:54:33.850Z,32.34
2022-07-29T10:55:33.827Z,32.05
2022-07-29T10:56:33.813Z,31.37
2022-07-29T10:57:53.072Z,31.14
2022-07-29T10:58:34.823Z,31.73
2022-07-29T10:59:36.297Z,32.29
2022-07-29T11:00:33.798Z,29.94
2022-07-29T11:01:37.315Z,30.14
2022-07-29T11:02:46.535Z,31.00
2022-07-29T11:03:34.818Z,30.90
2022-07-29T11:04:33.777Z,30.40
2022-07-29T11:05:40.740Z,30.12
2022-07-29T11:06:33.769Z,29.64
2022-07-29T11:07:46.110Z,29.94
2022-07-29T11:08:34.794Z,31.22
2022-07-29T11:09:37.763Z,29.60
2022-07-29T11:10:33.769Z,30.88
2022-07-29T11:11:33.728Z,31.17
2022-07-29T11:12:33.776Z,32.03
2022-07-29T11:13:37.203Z,32.37
2022-07-29T11:14:34.712Z,30.52
2022-07-29T11:15:33.728Z,31.27
2022-07-29T11:16:33.701Z,30.30
2022-07-29T11:17:46.942Z,29.61
2022-07-29T11:18:34.692Z,30.19
2022-07-29T11:19:33.685Z,30.37
2022-07-29T11:20:33.696Z,29.88
2022-07-29T11:21:48.865Z,29.48
2022-07-29T11:22:34.674Z,29.08
2022-07-29T11:23:34.725Z,28.30
2022-07-29T11:24:34.868Z,28.79
2022-07-29T11:25:43.035Z,29.10
2022-07-29T11:26:34.637Z,29.17
2022-07-29T11:27:33.636Z,29.50
2022-07-29T11:28:33.643Z,29.69
2022-07-29T11:29:33.632Z,29.76
2022-07-29T11:30:34.617Z,29.74
2022-07-29T11:31:33.620Z,29.83
2022-07-29T11:32:33.612Z,28.36
2022-07-29T11:33:54.774Z,29.15
2022-07-29T11:34:34.734Z,28.56
2022-07-29T11:35:38.500Z,29.36
2022-07-29T11:36:34.600Z,28.11
2022-07-29T11:37:34.584Z,29.28
2022-07-29T11:38:34.584Z,29.69
2022-07-29T11:39:36.717Z,29.41
2022-07-29T11:40:33.588Z,29.22
2022-07-29T11:41:33.592Z,29.32
2022-07-29T11:42:34.372Z,29.02
2022-07-29T11:43:33.547Z,29.30
2022-07-29T11:44:33.538Z,29.79
2022-07-29T11:45:41.580Z,30.35
2022-07-29T11:46:34.532Z,29.66
2022-07-29T11:47:38.275Z,29.26
2022-07-29T11:48:34.785Z,28.28
2022-07-29T11:49:33.572Z,27.79
2022-07-29T11:50:33.517Z,28.38
2022-07-29T11:51:33.507Z,29.22
2022-07-29T11:52:33.507Z,27.25
2022-07-29T11:53:33.494Z,27.57
2022-07-29T11:54:33.499Z,28.25
2022-07-29T11:55:34.505Z,28.45
2022-07-29T11:56:33.754Z,27.37
2022-07-29T11:57:37.211Z,27.66
2022-07-29T11:58:33.462Z,27.06
2022-07-29T11:59:34.853Z,25.99
2022-07-29T12:00:33.458Z,26.50
2022-07-29T12:01:33.446Z,25.62
2022-07-29T12:02:37.376Z,25.47
2022-07-29T12:03:35.792Z,26.46
2022-07-29T12:04:33.437Z,27.07
2022-07-29T12:05:36.942Z,28.40
2022-07-29T12:06:33.410Z,30.71
2022-07-29T12:07:34.696Z,30.44
2022-07-29T12:08:33.437Z,30.73
2022-07-29T12:09:40.336Z,31.41
2022-07-29T12:10:33.533Z,30.71
2022-07-29T12:11:33.406Z,31.31
2022-07-29T12:12:33.385Z,31.01
2022-07-29T12:13:37.690Z,31.28
2022-07-29T12:14:33.380Z,29.19
2022-07-29T12:15:45.928Z,29.28
2022-07-29T12:16:34.413Z,28.68
2022-07-29T12:17:33.365Z,29.16
2022-07-29T12:18:33.357Z,29.74
2022-07-29T12:19:33.349Z,29.22
2022-07-29T12:20:33.354Z,28.72
2022-07-29T12:21:33.333Z,28.63
2022-07-29T12:22:33.330Z,27.26
2022-07-29T12:23:34.325Z,28.14
2022-07-29T12:24:33.317Z,28.22
2022-07-29T12:25:33.854Z,27.72
2022-07-29T12:26:34.960Z,26.92
2022-07-29T12:27:33.306Z,26.04
2022-07-29T12:28:34.295Z,25.54
2022-07-29T12:29:34.844Z,26.53
2022-07-29T12:30:33.293Z,25.96
2022-07-29T12:31:42.106Z,25.77
2022-07-29T12:32:34.332Z,27.04
2022-07-29T12:33:33.266Z,26.95
2022-07-29T12:34:33.274Z,27.33
2022-07-29T12:35:33.310Z,27.93
2022-07-29T12:36:33.267Z,29.46
2022-07-29T12:37:41.394Z,29.43
2022-07-29T12:38:34.278Z,30.79
2022-07-29T12:39:33.251Z,32.10
2022-07-29T12:40:33.250Z,32.32
2022-07-29T12:41:33.243Z,33.50
2022-07-29T12:42:33.219Z,34.05
2022-07-29T12:43:33.213Z,32.58
2022-07-29T12:44:33.210Z,32.42
2022-07-29T12:45:33.206Z,32.23
2022-07-29T12:46:33.309Z,33.65
2022-07-29T12:47:33.185Z,33.98
2022-07-29T12:48:33.181Z,34.39
2022-07-29T12:49:38.160Z,34.20
2022-07-29T12:50:34.190Z,34.67
2022-07-29T12:51:33.188Z,33.95
2022-07-29T12:52:33.165Z,33.43